Time;durP1;ratioP1;P1;durP2;ratioP2;P2;SDS_P1;SDS_P2;PMS_P1;PMS_P2;Temp;Humidity;BMP_temperature;BMP_pressure;BME280_temperature;BME280_humidity;BME280_pressure;Samples;Min_cycle;Max_cycle;Signal;HPM_P1;HPM_P2
2023/08/08 00:02:38;;;;;;;2.55;1.90;;;17.10;99.90;;;;;;5030272;28;20240;-71
2023/08/08 00:05:26;;;;;;;2.88;2.00;;;17.10;99.90;;;;;;5062297;28;20312;-71
2023/08/08 00:08:15;;;;;;;3.72;2.03;;;17.20;99.90;;;;;;5064544;28;20675;-72
2023/08/08 00:11:06;;;;;;;3.35;2.10;;;17.10;99.90;;;;;;5078050;28;20230;-72
2023/08/08 00:13:55;;;;;;;3.67;1.70;;;17.10;99.90;;;;;;5082802;28;20697;-72
2023/08/08 00:16:44;;;;;;;3.83;1.98;;;17.10;99.90;;;;;;5074700;28;20680;-72
2023/08/08 00:19:35;;;;;;;4.85;2.03;;;17.10;99.90;;;;;;5081880;28;20653;-73
2023/08/08 00:22:23;;;;;;;4.70;2.00;;;17.10;99.90;;;;;;5073152;28;20318;-72
2023/08/08 00:25:12;;;;;;;10.30;2.03;;;17.00;99.90;;;;;;5077215;28;20249;-72
2023/08/08 00:28:01;;;;;;;5.30;2.10;;;16.90;99.90;;;;;;5084386;28;20215;-72
2023/08/08 00:30:53;;;;;;;6.35;1.90;;;16.90;99.90;;;;;;5081929;28;20239;-72
2023/08/08 00:33:42;;;;;;;3.95;1.95;;;17.00;99.90;;;;;;5082004;28;20215;-72
2023/08/08 00:36:33;;;;;;;5.55;1.95;;;17.00;99.90;;;;;;5064971;28;20296;-73
2023/08/08 00:39:21;;;;;;;6.65;1.90;;;17.00;99.90;;;;;;5062796;28;20219;-71
2023/08/08 00:42:11;;;;;;;4.38;1.90;;;16.90;99.90;;;;;;5064745;28;20361;-71
2023/08/08 00:45:03;;;;;;;5.15;2.10;;;16.90;99.90;;;;;;5084512;28;20267;-70
2023/08/08 00:47:52;;;;;;;6.35;1.80;;;16.90;99.90;;;;;;5090985;28;20270;-72
2023/08/08 00:50:44;;;;;;;7.70;2.30;;;16.80;99.90;;;;;;5076430;28;20219;-70
2023/08/08 00:53:34;;;;;;;4.93;2.13;;;16.80;99.90;;;;;;5077990;28;20244;-74
2023/08/08 00:56:24;;;;;;;8.57;2.10;;;16.90;99.90;;;;;;5062004;28;20212;-75
2023/08/08 00:59:15;;;;;;;5.90;2.00;;;16.80;99.90;;;;;;5058745;28;20982;-74
2023/08/08 01:02:04;;;;;;;6.20;2.08;;;16.80;99.90;;;;;;5086859;28;20276;-74
2023/08/08 01:04:53;;;;;;;6.82;2.10;;;16.90;99.90;;;;;;5090836;28;20261;-75
2023/08/08 01:07:53;;;;;;;4.88;1.98;;;16.80;99.90;;;;;;5084989;28;20227;-75
2023/08/08 01:10:44;;;;;;;4.53;2.30;;;16.90;99.90;;;;;;5079440;28;20598;-74
2023/08/08 01:13:35;;;;;;;6.88;2.20;;;16.70;99.90;;;;;;5063993;28;20215;-74
2023/08/08 01:16:25;;;;;;;5.80;2.28;;;16.80;99.90;;;;;;5093975;28;20204;-75
2023/08/08 01:19:24;;;;;;;6.00;2.33;;;16.70;99.90;;;;;;5078427;28;20304;-71
2023/08/08 01:22:23;;;;;;;5.47;2.20;;;16.70;99.90;;;;;;5073349;28;20354;-69
2023/08/08 01:25:14;;;;;;;4.40;1.80;;;16.70;99.90;;;;;;5070841;28;20297;-69
2023/08/08 01:28:05;;;;;;;7.90;2.20;;;16.60;99.90;;;;;;5074397;28;20235;-68
2023/08/08 01:30:54;;;;;;;3.42;1.95;;;16.70;99.90;;;;;;5066362;28;20223;-68
2023/08/08 01:33:43;;;;;;;6.25;2.00;;;16.50;99.90;;;;;;5071995;28;20224;-72
2023/08/08 01:36:36;;;;;;;5.82;2.35;;;16.60;99.90;;;;;;5068901;28;20245;-72
2023/08/08 01:39:28;;;;;;;6.82;2.15;;;16.50;99.90;;;;;;5071659;28;20216;-73
2023/08/08 01:42:20;;;;;;;6.90;2.10;;;16.50;99.90;;;;;;5079513;28;20690;-71
2023/08/08 01:45:10;;;;;;;3.53;1.90;;;16.50;99.90;;;;;;5060110;28;20258;-71
2023/08/08 01:47:59;;;;;;;4.60;2.00;;;16.50;99.90;;;;;;5069096;28;20255;-72
2023/08/08 01:50:49;;;;;;;6.35;2.00;;;16.40;99.90;;;;;;5058422;28;20231;-72
2023/08/08 01:53:38;;;;;;;7.40;2.10;;;16.50;99.90;;;;;;5072615;28;20718;-73
2023/08/08 01:56:27;;;;;;;7.18;2.20;;;16.50;99.90;;;;;;5077364;28;20227;-72
2023/08/08 01:59:18;;;;;;;6.97;2.60;;;16.50;99.90;;;;;;5073654;28;21031;-72
2023/08/08 02:02:07;;;;;;;4.63;1.73;;;16.40;99.90;;;;;;5065183;28;20308;-72
2023/08/08 02:04:56;;;;;;;8.00;2.10;;;16.30;99.90;;;;;;5058813;28;20322;-72
2023/08/08 02:07:45;;;;;;;5.80;1.90;;;16.30;99.90;;;;;;5072964;28;20733;-73
2023/08/08 02:10:34;;;;;;;6.40;2.58;;;16.30;99.90;;;;;;5073685;28;20220;-70
2023/08/08 02:13:23;;;;;;;6.07;2.47;;;16.30;99.90;;;;;;5072711;28;20344;-72
2023/08/08 02:16:13;;;;;;;4.88;1.90;;;16.20;99.90;;;;;;5083539;28;20237;-72
2023/08/08 02:19:02;;;;;;;6.95;2.10;;;16.20;99.90;;;;;;5068623;28;20222;-73
2023/08/08 02:21:51;;;;;;;6.80;2.47;;;16.20;99.90;;;;;;5083956;28;20264;-72
2023/08/08 02:24:40;;;;;;;5.00;2.08;;;16.20;99.90;;;;;;5085794;28;20303;-72
2023/08/08 02:27:29;;;;;;;4.03;2.05;;;16.20;99.90;;;;;;5069461;28;20236;-72
2023/08/08 02:30:19;;;;;;;7.60;2.08;;;16.00;99.90;;;;;;5072034;28;20239;-71
2023/08/08 02:33:09;;;;;;;4.82;1.98;;;16.10;99.90;;;;;;5080100;28;20244;-72
2023/08/08 02:35:59;;;;;;;4.55;2.03;;;16.10;99.90;;;;;;5070521;28;20710;-72
2023/08/08 02:38:49;;;;;;;6.10;1.90;;;16.10;99.90;;;;;;5072086;28;20220;-70
2023/08/08 02:41:38;;;;;;;7.63;2.60;;;16.10;99.90;;;;;;5079631;28;20258;-74
2023/08/08 02:44:27;;;;;;;5.90;2.22;;;16.10;99.90;;;;;;5084782;28;20235;-72
2023/08/08 02:47:16;;;;;;;5.35;2.40;;;16.20;99.90;;;;;;5075725;28;20258;-73
2023/08/08 02:50:08;;;;;;;6.68;1.98;;;15.90;99.90;;;;;;5085652;28;20337;-73
2023/08/08 02:52:57;;;;;;;3.95;1.83;;;15.90;99.90;;;;;;5075119;28;20676;-75
2023/08/08 02:55:51;;;;;;;5.57;2.20;;;15.90;99.90;;;;;;5073140;28;20228;-76
2023/08/08 02:58:40;;;;;;;6.35;2.10;;;15.90;99.90;;;;;;5073739;28;20231;-74
2023/08/08 03:01:29;;;;;;;5.43;2.42;;;16.00;99.90;;;;;;5084116;28;20230;-73
2023/08/08 03:04:19;;;;;;;5.43;2.03;;;15.90;99.90;;;;;;5079734;28;20726;-75
2023/08/08 03:07:10;;;;;;;4.50;2.08;;;15.80;99.90;;;;;;5080679;28;20227;-73
2023/08/08 03:09:59;;;;;;;6.25;2.20;;;15.80;99.90;;;;;;5064084;28;20261;-73
2023/08/08 03:12:48;;;;;;;9.00;2.63;;;15.80;99.90;;;;;;5088143;28;20314;-75
2023/08/08 03:15:37;;;;;;;6.97;2.10;;;15.80;99.90;;;;;;5079550;28;20933;-75
2023/08/08 03:18:28;;;;;;;4.45;2.30;;;15.80;99.90;;;;;;5083301;28;20285;-74
2023/08/08 03:21:18;;;;;;;8.43;2.65;;;15.80;99.90;;;;;;5070427;28;20254;-73
2023/08/08 03:24:08;;;;;;;5.18;1.95;;;15.80;99.90;;;;;;5062481;28;20244;-74
2023/08/08 03:26:57;;;;;;;4.80;2.20;;;15.80;99.90;;;;;;5091035;28;20266;-74
2023/08/08 03:29:47;;;;;;;4.85;1.90;;;15.80;99.90;;;;;;5068018;28;20247;-74
2023/08/08 03:32:38;;;;;;;5.70;2.10;;;15.80;99.90;;;;;;5061229;28;20232;-74
2023/08/08 03:35:27;;;;;;;5.70;2.10;;;15.70;99.90;;;;;;5084459;28;20227;-74
2023/08/08 03:38:16;;;;;;;4.10;1.90;;;15.70;99.90;;;;;;5080197;28;20706;-75
2023/08/08 03:41:08;;;;;;;5.53;2.40;;;15.70;99.90;;;;;;5063719;28;20215;-76
2023/08/08 03:43:57;;;;;;;9.32;2.22;;;15.70;99.90;;;;;;5079943;28;20242;-76
2023/08/08 03:46:47;;;;;;;7.25;2.20;;;15.70;99.90;;;;;;5078046;28;20227;-76
2023/08/08 03:49:36;;;;;;;4.47;2.03;;;15.70;99.90;;;;;;5084852;28;20963;-76
2023/08/08 03:52:25;;;;;;;5.30;2.17;;;15.80;99.90;;;;;;5066145;28;20235;-72
2023/08/08 03:55:14;;;;;;;6.55;2.28;;;15.70;99.90;;;;;;5071210;28;20368;-73
2023/08/08 03:58:05;;;;;;;7.82;2.08;;;15.60;99.90;;;;;;5061929;28;20637;-70
2023/08/08 04:00:56;;;;;;;5.18;1.98;;;15.60;99.90;;;;;;5080591;28;20223;-73
2023/08/08 04:03:45;;;;;;;5.22;2.30;;;15.60;99.90;;;;;;5078835;28;20269;-73
2023/08/08 04:06:34;;;;;;;4.25;2.00;;;15.60;99.90;;;;;;5069303;28;20277;-73
2023/08/08 04:09:23;;;;;;;5.53;2.10;;;15.80;99.90;;;;;;5078909;28;20272;-73
2023/08/08 04:12:12;;;;;;;5.00;2.00;;;15.90;99.90;;;;;;5081961;28;20302;-79
2023/08/08 04:15:02;;;;;;;4.60;1.88;;;16.00;99.90;;;;;;5079717;28;20731;-75
2023/08/08 04:17:51;;;;;;;8.25;2.22;;;16.00;99.90;;;;;;5080313;28;20294;-72
2023/08/08 04:20:46;;;;;;;4.57;2.00;;;15.90;99.90;;;;;;5066765;28;20507;-73
2023/08/08 04:23:35;;;;;;;5.95;2.22;;;15.90;99.90;;;;;;5082218;28;20228;-72
2023/08/08 04:26:24;;;;;;;7.63;2.45;;;16.00;99.90;;;;;;5075955;28;20334;-71
2023/08/08 04:29:13;;;;;;;6.30;2.20;;;16.00;99.90;;;;;;5073763;28;20223;-73
2023/08/08 04:32:04;;;;;;;6.03;2.33;;;16.00;99.90;;;;;;5078884;28;20887;-72
2023/08/08 04:34:53;;;;;;;7.13;2.40;;;16.20;99.90;;;;;;5075853;28;20221;-71
2023/08/08 04:37:42;;;;;;;4.28;1.98;;;16.20;99.90;;;;;;5064361;28;20229;-70
2023/08/08 04:40:31;;;;;;;12.73;2.65;;;16.20;99.90;;;;;;5083441;28;20219;-71
2023/08/08 04:43:20;;;;;;;8.73;2.10;;;16.40;99.90;;;;;;5059424;28;20227;-72
2023/08/08 04:46:09;;;;;;;6.88;2.45;;;16.50;99.90;;;;;;5077124;28;20297;-72
2023/08/08 04:48:59;;;;;;;7.03;2.20;;;16.60;99.90;;;;;;5082095;28;20549;-72
2023/08/08 04:51:48;;;;;;;5.28;2.00;;;16.50;99.90;;;;;;5079335;28;20315;-71
2023/08/08 04:54:38;;;;;;;6.45;1.80;;;16.40;99.90;;;;;;5073876;28;20224;-72
2023/08/08 04:57:26;;;;;;;5.40;1.88;;;16.40;99.90;;;;;;5078899;28;20987;-71
2023/08/08 05:00:16;;;;;;;5.20;1.90;;;16.50;99.90;;;;;;5076347;28;20254;-71
2023/08/08 05:03:05;;;;;;;5.63;1.92;;;16.60;99.90;;;;;;5058943;28;20223;-73
2023/08/08 05:05:58;;;;;;;13.90;2.10;;;16.70;99.90;;;;;;5067074;28;20292;-73
2023/08/08 05:08:47;;;;;;;4.93;2.13;;;16.80;99.90;;;;;;5079759;28;20311;-71
2023/08/08 05:11:36;;;;;;;6.03;2.00;;;16.70;99.90;;;;;;5080842;28;20684;-72
2023/08/08 05:14:25;;;;;;;4.88;1.92;;;16.90;99.90;;;;;;5081757;28;20220;-69
2023/08/08 05:17:14;;;;;;;4.15;2.05;;;16.80;99.90;;;;;;5059795;28;21016;-68
2023/08/08 05:20:04;;;;;;;4.72;2.20;;;16.90;99.90;;;;;;5071798;28;20232;-68
2023/08/08 05:22:55;;;;;;;5.68;2.00;;;17.00;99.90;;;;;;5064535;28;20240;-69
2023/08/08 05:25:44;;;;;;;7.93;2.63;;;16.90;99.90;;;;;;5080464;28;20223;-69
2023/08/08 05:28:32;;;;;;;6.78;2.00;;;17.10;99.90;;;;;;5083319;28;20220;-70
2023/08/08 05:31:22;;;;;;;8.50;2.50;;;17.10;99.90;;;;;;5078377;28;20212;-70
2023/08/08 05:34:10;;;;;;;3.83;2.00;;;17.20;99.90;;;;;;5077671;28;20265;-71
2023/08/08 05:36:59;;;;;;;6.78;3.08;;;17.30;99.90;;;;;;5070411;28;20227;-69
2023/08/08 05:40:06;;;;;;;5.60;2.28;;;17.30;99.90;;;;;;5070583;28;20257;-69
2023/08/08 05:42:55;;;;;;;6.05;2.25;;;17.40;99.90;;;;;;5082172;28;20223;-71
2023/08/08 05:45:45;;;;;;;5.30;2.22;;;17.50;99.90;;;;;;5075191;28;20235;-70
2023/08/08 05:48:34;;;;;;;5.18;1.98;;;17.50;99.90;;;;;;5079046;28;20239;-76
2023/08/08 05:51:23;;;;;;;7.53;2.55;;;17.50;99.90;;;;;;5075736;28;20240;-74
2023/08/08 05:54:12;;;;;;;6.63;2.30;;;17.50;99.90;;;;;;5075517;28;20655;-75
2023/08/08 05:57:04;;;;;;;7.10;2.35;;;17.50;99.90;;;;;;5069566;28;20649;-73
2023/08/08 05:59:54;;;;;;;4.22;2.20;;;17.40;99.90;;;;;;5068995;28;20228;-75
2023/08/08 06:02:43;;;;;;;4.05;2.10;;;17.40;99.90;;;;;;5078900;28;20215;-73
2023/08/08 06:05:32;;;;;;;4.78;2.05;;;17.30;99.90;;;;;;5079243;28;20234;-72
2023/08/08 06:08:21;;;;;;;4.85;2.20;;;17.20;99.90;;;;;;5066534;28;20683;-72
2023/08/08 06:11:10;;;;;;;7.03;2.25;;;17.20;99.90;;;;;;5080577;28;20348;-71
2023/08/08 06:14:01;;;;;;;8.75;1.83;;;17.30;99.90;;;;;;5066553;28;20318;-71
2023/08/08 06:16:50;;;;;;;9.80;2.55;;;17.50;99.90;;;;;;5075081;28;20709;-72
2023/08/08 06:19:39;;;;;;;5.43;2.22;;;17.70;99.90;;;;;;5080764;28;20265;-71
2023/08/08 06:22:28;;;;;;;6.75;2.05;;;17.80;99.90;;;;;;5059454;28;20231;-72
2023/08/08 06:25:17;;;;;;;6.10;2.10;;;17.80;99.90;;;;;;5078368;28;20254;-72
2023/08/08 06:28:06;;;;;;;9.60;2.30;;;17.90;99.90;;;;;;5083322;28;20236;-89
2023/08/08 06:30:57;;;;;;;5.55;2.10;;;18.00;99.90;;;;;;5076577;28;20329;-78
2023/08/08 06:33:46;;;;;;;6.65;2.13;;;18.00;99.90;;;;;;5068905;28;20219;-77
2023/08/08 06:36:35;;;;;;;6.20;2.53;;;17.80;99.90;;;;;;5084602;28;20228;-77
2023/08/08 06:39:25;;;;;;;5.63;2.00;;;17.70;99.90;;;;;;5078564;28;20243;-77
2023/08/08 06:42:14;;;;;;;6.68;2.28;;;17.80;99.90;;;;;;5082696;28;20609;-78
2023/08/08 06:45:15;;;;;;;6.63;2.28;;;18.10;99.90;;;;;;5078642;28;20231;-79
2023/08/08 06:48:06;;;;;;;6.57;2.10;;;18.10;99.90;;;;;;5084325;28;20266;-80
2023/08/08 06:50:55;;;;;;;4.68;2.03;;;18.20;99.90;;;;;;5076052;28;20231;-72
2023/08/08 06:53:44;;;;;;;7.95;2.28;;;18.20;99.90;;;;;;5085625;28;20583;-75
2023/08/08 06:56:33;;;;;;;6.97;2.15;;;18.30;99.90;;;;;;5066300;28;20235;-73
2023/08/08 06:59:22;;;;;;;4.90;2.17;;;18.20;99.90;;;;;;5086932;28;20226;-72
2023/08/08 07:02:12;;;;;;;7.20;2.30;;;18.30;99.90;;;;;;5076744;28;20348;-86
2023/08/08 07:05:03;;;;;;;6.22;2.20;;;18.40;99.90;;;;;;5086644;28;20239;-82
2023/08/08 07:07:53;;;;;;;4.40;2.47;;;18.40;99.90;;;;;;5077444;28;20227;-82
2023/08/08 07:10:42;;;;;;;7.07;2.15;;;18.60;99.90;;;;;;5081608;28;20231;-84
2023/08/08 07:13:31;;;;;;;7.60;2.05;;;18.70;99.90;;;;;;5087016;28;20242;-82
2023/08/08 07:16:20;;;;;;;8.73;2.30;;;18.70;99.90;;;;;;5091997;28;20227;-84
2023/08/08 07:19:11;;;;;;;5.85;2.20;;;18.70;99.90;;;;;;5070102;28;20307;-72
2023/08/08 07:22:02;;;;;;;5.30;2.20;;;19.00;99.90;;;;;;5082983;28;20230;-84
2023/08/08 07:24:51;;;;;;;7.45;2.10;;;19.30;99.90;;;;;;5085393;28;20223;-84
2023/08/08 07:27:40;;;;;;;5.03;1.95;;;19.50;99.90;;;;;;5083463;28;20226;-83
2023/08/08 07:30:30;;;;;;;4.97;2.17;;;19.60;99.90;;;;;;5070385;28;20623;-82
2023/08/08 07:33:18;;;;;;;5.10;2.38;;;19.60;99.90;;;;;;5080671;28;20231;-84
2023/08/08 07:36:07;;;;;;;6.93;2.42;;;20.00;99.90;;;;;;5085012;28;20606;-82
2023/08/08 07:38:59;;;;;;;3.30;2.25;;;20.20;99.90;;;;;;5078941;28;20235;-84
2023/08/08 07:41:48;;;;;;;6.72;2.38;;;20.20;99.90;;;;;;5079130;28;20231;-83
2023/08/08 07:44:38;;;;;;;7.93;2.35;;;20.00;99.90;;;;;;5079040;28;20232;-83
2023/08/08 07:47:27;;;;;;;6.60;2.00;;;20.10;99.90;;;;;;5075823;28;20239;-82
2023/08/08 07:50:16;;;;;;;7.88;2.60;;;20.30;99.90;;;;;;5083676;28;20255;-83
2023/08/08 07:53:05;;;;;;;6.72;2.22;;;20.80;99.90;;;;;;5082875;28;20226;-83
2023/08/08 07:55:55;;;;;;;8.63;4.50;;;20.80;99.90;;;;;;5094935;28;20369;-83
2023/08/08 07:58:44;;;;;;;4.57;1.95;;;20.90;99.90;;;;;;5086551;28;20223;-83
2023/08/08 08:01:33;;;;;;;6.88;2.00;;;20.50;99.90;;;;;;5083025;28;20243;-85
2023/08/08 08:04:22;;;;;;;6.85;2.20;;;20.90;99.90;;;;;;5066369;28;20227;-84
2023/08/08 08:07:11;;;;;;;8.35;1.98;;;20.50;99.90;;;;;;5080954;28;20222;-83
2023/08/08 08:10:00;;;;;;;11.02;2.60;;;20.70;99.90;;;;;;5063221;28;20819;-85
2023/08/08 08:12:57;;;;;;;5.15;2.17;;;20.20;99.90;;;;;;5059325;28;23155;-84
2023/08/08 08:15:46;;;;;;;11.15;2.22;;;20.30;99.90;;;;;;5061540;28;20227;-84
2023/08/08 08:18:35;;;;;;;7.10;2.70;;;20.60;99.90;;;;;;5066064;28;20305;-84
2023/08/08 08:21:24;;;;;;;7.97;2.35;;;21.20;99.90;;;;;;5054942;28;20220;-83
2023/08/08 08:24:13;;;;;;;6.00;2.20;;;21.40;99.90;;;;;;5053345;28;20239;-84
2023/08/08 08:27:05;;;;;;;6.32;2.20;;;21.70;99.90;;;;;;5055346;28;20393;-82
2023/08/08 08:29:57;;;;;;;5.18;1.95;;;21.90;99.90;;;;;;5063740;28;20227;-84
2023/08/08 08:32:46;;;;;;;4.07;2.80;;;22.00;99.90;;;;;;5048923;28;20478;-84
2023/08/08 08:35:35;;;;;;;4.72;1.85;;;21.90;99.90;;;;;;5062809;28;20906;-84
2023/08/08 08:38:24;;;;;;;8.18;2.13;;;21.00;99.90;;;;;;5060264;28;20225;-85
2023/08/08 08:41:19;;;;;;;3.72;1.90;;;20.80;99.90;;;;;;5068140;28;20686;-84
2023/08/08 08:44:09;;;;;;;6.55;1.77;;;20.80;99.90;;;;;;5064204;28;20228;-85
2023/08/08 08:47:02;;;;;;;5.25;1.92;;;21.40;99.90;;;;;;5065214;28;20261;-83
2023/08/08 08:49:55;;;;;;;6.90;2.17;;;21.90;99.90;;;;;;5052041;28;20220;-84
2023/08/08 08:52:44;;;;;;;4.82;1.95;;;21.70;99.90;;;;;;5054103;28;20774;-84
2023/08/08 08:55:34;;;;;;;5.82;1.92;;;22.10;99.90;;;;;;5059564;28;20286;-83
2023/08/08 08:58:25;;;;;;;4.75;2.22;;;22.90;99.90;;;;;;5071499;28;20232;-83
2023/08/08 09:01:15;;;;;;;4.50;1.83;;;22.90;99.90;;;;;;5061352;28;20239;-82
2023/08/08 09:04:08;;;;;;;4.03;2.00;;;23.30;99.90;;;;;;5074831;28;20306;-83
2023/08/08 09:06:58;;;;;;;5.18;2.00;;;22.90;99.90;;;;;;5060510;28;20268;-82
2023/08/08 09:09:47;;;;;;;5.45;2.08;;;23.40;99.90;;;;;;5078498;28;20224;-83
2023/08/08 09:12:37;;;;;;;4.82;2.10;;;22.70;99.90;;;;;;5077295;28;20243;-83
2023/08/08 09:15:25;;;;;;;5.20;2.00;;;23.20;99.90;;;;;;5082726;28;20235;-83
2023/08/08 09:18:14;;;;;;;4.15;1.92;;;22.20;99.90;;;;;;5077937;28;20234;-83
2023/08/08 09:21:07;;;;;;;2.72;1.70;;;21.40;99.90;;;;;;5066041;28;20238;-83
2023/08/08 09:23:56;;;;;;;4.28;1.70;;;22.10;99.90;;;;;;5059538;28;20232;-83
2023/08/08 09:26:45;;;;;;;3.92;1.70;;;23.50;99.90;;;;;;5079001;28;20215;-83
2023/08/08 09:29:34;;;;;;;6.75;2.03;;;23.10;99.90;;;;;;5078607;28;20712;-83
2023/08/08 09:32:23;;;;;;;19.92;2.35;;;22.60;99.90;;;;;;5080532;28;20837;-86
2023/08/08 09:35:12;;;;;;;5.25;1.92;;;21.70;99.90;;;;;;5079844;28;20333;-78
2023/08/08 09:38:02;;;;;;;4.13;2.00;;;22.70;99.90;;;;;;5075291;28;20227;-82
2023/08/08 09:40:52;;;;;;;5.32;1.80;;;24.70;99.90;;;;;;5088391;28;20224;-81
2023/08/08 09:43:44;;;;;;;4.43;1.73;;;24.10;99.90;;;;;;5082379;28;20227;-82
2023/08/08 09:46:34;;;;;;;3.13;1.65;;;23.70;99.90;;;;;;5085734;28;20722;-82
2023/08/08 09:49:23;;;;;;;13.77;2.08;;;23.40;99.60;;;;;;5085807;28;20219;-82
2023/08/08 09:52:12;;;;;;;3.08;1.77;;;22.40;98.20;;;;;;5066573;28;20685;-83
2023/08/08 09:55:04;;;;;;;5.18;1.75;;;21.80;99.90;;;;;;5057506;28;20238;-82
2023/08/08 09:57:54;;;;;;;5.10;1.98;;;21.60;99.90;;;;;;5069622;28;20216;-82
2023/08/08 10:00:44;;;;;;;4.55;2.05;;;21.30;99.90;;;;;;5076354;28;20223;-82
2023/08/08 10:03:36;;;;;;;4.63;2.00;;;21.30;99.90;;;;;;5077926;28;20361;-83
2023/08/08 10:06:25;;;;;;;5.55;1.67;;;21.50;99.90;;;;;;5077442;28;20228;-83
2023/08/08 10:09:14;;;;;;;4.93;1.83;;;21.50;99.90;;;;;;5058586;28;20247;-83
2023/08/08 10:12:07;;;;;;;11.32;1.77;;;21.30;99.90;;;;;;5044318;28;20216;-83
2023/08/08 10:14:57;;;;;;;3.58;1.67;;;21.50;99.60;;;;;;5050488;28;20232;-83
2023/08/08 10:17:47;;;;;;;5.05;1.75;;;21.90;99.90;;;;;;5061246;28;20224;-83
2023/08/08 10:20:37;;;;;;;3.67;1.50;;;22.70;99.60;;;;;;5061365;28;20240;-84
2023/08/08 10:23:27;;;;;;;2.45;1.40;;;21.90;97.80;;;;;;5057362;28;20283;-82
2023/08/08 10:26:20;;;;;;;2.08;1.50;;;21.40;98.60;;;;;;5055879;28;20336;-82
2023/08/08 10:29:19;;;;;;;10.13;2.10;;;21.00;99.60;;;;;;5049729;28;20256;-82
2023/08/08 10:32:08;;;;;;;6.40;1.83;;;20.90;99.90;;;;;;5053204;28;20236;-82
2023/08/08 10:35:00;;;;;;;5.32;1.95;;;21.60;99.60;;;;;;5061004;28;20235;-81
2023/08/08 10:37:54;;;;;;;6.53;1.98;;;25.40;95.40;;;;;;5056926;28;20623;-79
2023/08/08 10:40:44;;;;;;;3.05;1.75;;;27.90;91.40;;;;;;5039638;28;20362;-80
2023/08/08 10:43:33;;;;;;;4.18;1.40;;;31.30;89.10;;;;;;5071294;28;20381;-81
2023/08/08 10:46:28;;;;;;;4.50;1.38;;;28.50;79.80;;;;;;5063740;28;20232;-80
2023/08/08 10:49:18;;;;;;;3.28;1.70;;;28.80;86.10;;;;;;5058738;28;20232;-80
2023/08/08 10:52:08;;;;;;;1.77;1.30;;;27.80;79.80;;;;;;5058557;28;20224;-80
2023/08/08 10:54:57;;;;;;;5.70;1.65;;;25.20;80.90;;;;;;5059054;28;20259;-81
2023/08/08 10:57:59;;;;;;;5.32;1.48;;;24.00;89.00;;;;;;5063248;28;20231;-81
2023/08/08 11:00:49;;;;;;;3.92;1.30;;;23.70;90.20;;;;;;5055464;28;20377;-81
2023/08/08 11:03:41;;;;;;;3.47;1.40;;;23.10;89.70;;;;;;5060380;28;20304;-81
2023/08/08 11:06:30;;;;;;;2.50;1.33;;;25.70;91.70;;;;;;5061639;28;20807;-81
2023/08/08 11:09:20;;;;;;;4.55;1.60;;;29.10;80.70;;;;;;5058058;28;20723;-80
2023/08/08 11:12:15;;;;;;;3.42;1.63;;;27.30;82.70;;;;;;5061529;28;20244;-82
2023/08/08 11:15:05;;;;;;;2.22;1.40;;;25.20;84.90;;;;;;5056362;28;20235;-81
2023/08/08 11:17:57;;;;;;;4.85;1.75;;;24.00;86.40;;;;;;5066487;28;20252;-80
2023/08/08 11:20:49;;;;;;;5.50;1.40;;;23.50;92.40;;;;;;5060085;28;20232;-81
2023/08/08 11:23:47;;;;;;;4.07;1.50;;;23.30;89.80;;;;;;5059893;28;20243;-81
2023/08/08 11:26:37;;;;;;;2.83;1.50;;;26.30;85.30;;;;;;5059899;28;20726;-81
2023/08/08 11:29:30;;;;;;;1.92;1.40;;;25.30;84.00;;;;;;5044740;28;20220;-82
2023/08/08 11:32:19;;;;;;;2.90;1.20;;;25.80;87.70;;;;;;5046845;28;20243;-81
2023/08/08 11:35:08;;;;;;;4.43;1.38;;;27.70;82.40;;;;;;5065334;28;20244;-81
2023/08/08 11:38:00;;;;;;;2.63;1.40;;;27.10;81.60;;;;;;5064601;28;20219;-79
2023/08/08 11:40:49;;;;;;;2.50;1.15;;;26.50;87.00;;;;;;5058703;28;20730;-81
2023/08/08 11:43:38;;;;;;;4.22;1.50;;;27.70;79.10;;;;;;5056900;28;20236;-81
2023/08/08 11:46:27;;;;;;;4.15;1.20;;;29.30;71.50;;;;;;5062921;28;20223;-79
2023/08/08 11:49:17;;;;;;;2.92;1.30;;;32.00;68.00;;;;;;5060607;28;20369;-79
2023/08/08 11:52:08;;;;;;;1.35;1.10;;;28.70;66.70;;;;;;5053478;28;20711;-80
2023/08/08 11:55:00;;;;;;;2.25;1.30;;;26.70;72.70;;;;;;5061967;28;20216;-79
2023/08/08 11:57:50;;;;;;;2.85;1.70;;;31.00;76.50;;;;;;5082574;28;20322;-79
2023/08/08 12:00:39;;;;;;;4.80;1.60;;;36.60;63.50;;;;;;5061857;28;20243;-79
2023/08/08 12:03:28;;;;;;;4.15;1.23;;;35.60;53.90;;;;;;5056958;28;20238;-80
2023/08/08 12:06:18;;;;;;;2.85;1.08;;;33.80;53.40;;;;;;5062037;28;20618;-80
2023/08/08 12:09:07;;;;;;;2.50;1.50;;;33.10;56.60;;;;;;5078406;28;20787;-79
2023/08/08 12:12:00;;;;;;;1.95;1.23;;;36.20;52.90;;;;;;5076174;28;20765;-78
2023/08/08 12:14:50;;;;;;;1.98;1.38;;;37.60;51.20;;;;;;5078969;28;20219;-77
2023/08/08 12:17:56;;;;;;;1.92;0.93;;;36.00;51.90;;;;;;5072797;28;20233;-78
2023/08/08 12:20:45;;;;;;;3.33;1.30;;;37.60;48.40;;;;;;5080449;28;20234;-79
2023/08/08 12:23:35;;;;;;;2.22;1.15;;;35.50;50.10;;;;;;5086012;28;20211;-79
2023/08/08 12:26:24;;;;;;;1.75;1.30;;;31.60;54.50;;;;;;5083961;28;20364;-81
2023/08/08 12:29:14;;;;;;;1.92;1.40;;;28.60;56.20;;;;;;5071191;28;20230;-79
2023/08/08 12:32:07;;;;;;;1.70;1.10;;;26.90;60.50;;;;;;5073100;28;20314;-80
2023/08/08 12:34:56;;;;;;;1.83;1.23;;;25.90;63.90;;;;;;5073867;28;20227;-79
2023/08/08 12:37:45;;;;;;;2.83;1.10;;;25.30;70.60;;;;;;5082875;28;20566;-80
2023/08/08 12:40:34;;;;;;;2.83;1.40;;;24.60;67.00;;;;;;5072001;28;20307;-80
2023/08/08 12:43:23;;;;;;;2.92;1.35;;;24.10;70.90;;;;;;5070994;28;20216;-80
2023/08/08 12:46:14;;;;;;;6.43;1.38;;;24.30;73.10;;;;;;5079069;28;20227;-79
2023/08/08 12:49:03;;;;;;;3.65;1.23;;;24.00;70.20;;;;;;5069358;28;20242;-81
2023/08/08 12:51:56;;;;;;;8.43;1.50;;;24.00;72.00;;;;;;5088115;28;20224;-81
2023/08/08 12:54:44;;;;;;;6.15;1.48;;;23.70;69.60;;;;;;5077251;28;20228;-81
2023/08/08 12:57:34;;;;;;;2.95;0.90;;;23.50;70.20;;;;;;5074011;28;20266;-81
2023/08/08 13:00:23;;;;;;;1.98;1.10;;;23.60;70.50;;;;;;5080805;28;20257;-81
2023/08/08 13:03:14;;;;;;;8.40;1.23;;;23.60;71.50;;;;;;5070987;28;20235;-82
2023/08/08 13:06:03;;;;;;;3.10;1.20;;;23.70;72.20;;;;;;5059825;28;20335;-81
2023/08/08 13:08:52;;;;;;;3.67;1.33;;;23.60;70.80;;;;;;5061958;28;20233;-81
2023/08/08 13:11:42;;;;;;;2.08;1.27;;;23.70;70.40;;;;;;5078601;28;20271;-81
2023/08/08 13:14:32;;;;;;;2.05;1.20;;;23.10;70.70;;;;;;5082906;28;20228;-81
2023/08/08 13:17:21;;;;;;;2.67;1.00;;;22.90;71.30;;;;;;5079529;28;20231;-81
2023/08/08 13:20:13;;;;;;;2.17;1.20;;;22.70;71.90;;;;;;5082263;28;20243;-81
2023/08/08 13:23:04;;;;;;;2.55;1.08;;;22.50;76.40;;;;;;5078668;28;20318;-82
2023/08/08 13:25:52;;;;;;;3.08;1.00;;;22.20;73.70;;;;;;5068685;28;20228;-82
2023/08/08 13:28:42;;;;;;;2.30;1.30;;;22.30;75.80;;;;;;5085838;28;20305;-82
2023/08/08 13:31:31;;;;;;;4.75;1.10;;;22.20;77.20;;;;;;5070097;28;20231;-82
2023/08/08 13:34:20;;;;;;;4.57;1.33;;;22.30;76.30;;;;;;5079291;28;20216;-82
2023/08/08 13:37:10;;;;;;;4.72;1.25;;;22.10;78.00;;;;;;5079483;28;20216;-82
2023/08/08 13:39:59;;;;;;;2.08;1.05;;;22.00;80.10;;;;;;5076191;28;20674;-82
2023/08/08 13:42:50;;;;;;;1.90;1.20;;;22.00;77.60;;;;;;5073177;28;20244;-81
2023/08/08 13:45:39;;;;;;;2.72;0.98;;;21.80;78.50;;;;;;5076653;28;20259;-81
2023/08/08 13:48:28;;;;;;;2.53;1.30;;;21.90;81.10;;;;;;5073618;28;20226;-81
2023/08/08 13:51:17;;;;;;;2.17;1.30;;;21.60;84.20;;;;;;5081666;28;20270;-82
2023/08/08 13:54:07;;;;;;;5.20;1.50;;;21.50;85.70;;;;;;5083203;28;20222;-80
2023/08/08 13:56:56;;;;;;;3.90;1.13;;;21.40;85.70;;;;;;5080084;28;20224;-81
2023/08/08 13:59:45;;;;;;;3.00;1.50;;;21.40;89.90;;;;;;5068731;28;20234;-82
2023/08/08 14:02:34;;;;;;;6.30;1.25;;;21.20;91.00;;;;;;5072101;28;20361;-81
2023/08/08 14:05:23;;;;;;;2.65;1.42;;;21.30;91.70;;;;;;5068728;28;20232;-82
2023/08/08 14:08:12;;;;;;;5.78;1.20;;;21.40;92.60;;;;;;5059205;28;20266;-81
2023/08/08 14:11:02;;;;;;;4.72;1.40;;;21.40;91.10;;;;;;5051033;28;20583;-81
2023/08/08 14:13:51;;;;;;;2.22;1.23;;;21.60;92.10;;;;;;5057872;28;20239;-81
2023/08/08 14:16:42;;;;;;;3.40;1.40;;;21.60;91.10;;;;;;5041260;28;20225;-81
2023/08/08 14:19:32;;;;;;;2.30;1.23;;;21.60;92.40;;;;;;5058623;28;20331;-82
2023/08/08 14:22:21;;;;;;;3.40;1.45;;;21.50;92.30;;;;;;5060162;28;20239;-81
2023/08/08 14:25:10;;;;;;;2.60;1.30;;;21.70;92.40;;;;;;5060579;28;20227;-81
2023/08/08 14:28:01;;;;;;;4.22;1.65;;;21.70;91.30;;;;;;5062270;28;20308;-81
2023/08/08 14:30:50;;;;;;;2.95;1.50;;;21.70;92.20;;;;;;5053963;28;20240;-80
2023/08/08 14:33:39;;;;;;;3.42;1.40;;;21.80;92.70;;;;;;5067211;28;20251;-82
2023/08/08 14:36:27;;;;;;;3.53;1.83;;;21.80;91.70;;;;;;5047081;28;20233;-82
2023/08/08 14:39:16;;;;;;;3.55;1.30;;;21.80;91.50;;;;;;5050201;28;20224;-83
2023/08/08 14:42:05;;;;;;;2.17;1.27;;;21.90;90.80;;;;;;5062536;28;20282;-70
2023/08/08 14:44:56;;;;;;;2.88;1.40;;;21.60;90.40;;;;;;5064117;28;20706;-73